sensor_id;sensor_type;location;lat;lon;timestamp;pressure;altitude;pressure_sealevel;temperature;humidity
57192;BME280;43052;52.588;13.396;2023-05-16T00:02:03;100455.78;;;14.36;64.76
57192;BME280;43052;52.588;13.396;2023-05-16T00:04:29;100456.75;;;14.32;64.65
57192;BME280;43052;52.588;13.396;2023-05-16T00:06:56;100454.91;;;14.35;64.61
57192;BME280;43052;52.588;13.396;2023-05-16T00:09:21;100463.75;;;14.33;65.33
57192;BME280;43052;52.588;13.396;2023-05-16T00:11:46;100461.16;;;14.31;65.23
57192;BME280;43052;52.588;13.396;2023-05-16T00:14:12;100467.28;;;14.32;65.20
57192;BME280;43052;52.588;13.396;2023-05-16T00:16:39;100469.84;;;14.33;65.23
57192;BME280;43052;52.588;13.396;2023-05-16T00:19:05;100465.53;;;14.31;65.31
57192;BME280;43052;52.588;13.396;2023-05-16T00:21:31;100480.38;;;14.33;65.00
57192;BME280;43052;52.588;13.396;2023-05-16T00:23:56;100477.66;;;14.36;65.05
57192;BME280;43052;52.588;13.396;2023-05-16T00:26:23;100476.84;;;14.34;64.95
57192;BME280;43052;52.588;13.396;2023-05-16T00:28:48;100484.66;;;14.37;65.19
57192;BME280;43052;52.588;13.396;2023-05-16T00:31:13;100484.72;;;14.34;65.15
57192;BME280;43052;52.588;13.396;2023-05-16T00:33:38;100479.53;;;14.33;65.40
57192;BME280;43052;52.588;13.396;2023-05-16T00:36:04;100491.00;;;14.30;65.66
57192;BME280;43052;52.588;13.396;2023-05-16T00:38:29;100484.97;;;14.25;65.75
57192;BME280;43052;52.588;13.396;2023-05-16T00:40:54;100479.09;;;14.15;66.10
57192;BME280;43052;52.588;13.396;2023-05-16T00:43:20;100480.97;;;14.10;66.38
57192;BME280;43052;52.588;13.396;2023-05-16T00:45:45;100482.88;;;14.03;66.52
57192;BME280;43052;52.588;13.396;2023-05-16T00:48:11;100490.94;;;13.97;66.58
57192;BME280;43052;52.588;13.396;2023-05-16T00:50:38;100487.56;;;13.90;66.83
57192;BME280;43052;52.588;13.396;2023-05-16T00:53:04;100480.66;;;13.86;67.21
57192;BME280;43052;52.588;13.396;2023-05-16T00:55:29;100487.84;;;13.78;67.08
57192;BME280;43052;52.588;13.396;2023-05-16T00:57:57;100491.56;;;13.69;67.55
57192;BME280;43052;52.588;13.396;2023-05-16T01:00:22;100499.50;;;13.66;67.66
57192;BME280;43052;52.588;13.396;2023-05-16T01:02:48;100504.91;;;13.60;67.81
57192;BME280;43052;52.588;13.396;2023-05-16T01:05:16;100515.53;;;13.54;67.99
57192;BME280;43052;52.588;13.396;2023-05-16T01:07:41;100507.88;;;13.43;68.62
57192;BME280;43052;52.588;13.396;2023-05-16T01:10:06;100516.81;;;13.34;68.64
57192;BME280;43052;52.588;13.396;2023-05-16T01:12:40;100521.41;;;13.23;69.06
57192;BME280;43052;52.588;13.396;2023-05-16T01:15:29;100524.25;;;13.12;69.55
57192;BME280;43052;52.588;13.396;2023-05-16T01:18:05;100523.56;;;13.02;70.05
57192;BME280;43052;52.588;13.396;2023-05-16T01:20:47;100513.28;;;12.91;70.40
57192;BME280;43052;52.588;13.396;2023-05-16T01:23:36;100514.34;;;12.81;70.83
57192;BME280;43052;52.588;13.396;2023-05-16T01:26:22;100521.44;;;12.74;70.88
57192;BME280;43052;52.588;13.396;2023-05-16T01:28:49;100525.91;;;12.69;70.87
57192;BME280;43052;52.588;13.396;2023-05-16T01:31:15;100526.94;;;12.62;71.30
57192;BME280;43052;52.588;13.396;2023-05-16T01:33:40;100528.72;;;12.60;71.75
57192;BME280;43052;52.588;13.396;2023-05-16T01:36:10;100536.69;;;12.53;71.94
57192;BME280;43052;52.588;13.396;2023-05-16T01:38:47;100537.69;;;12.46;72.47
57192;BME280;43052;52.588;13.396;2023-05-16T01:41:46;100538.59;;;12.44;72.74
57192;BME280;43052;52.588;13.396;2023-05-16T01:44:22;100539.50;;;12.41;72.94
57192;BME280;43052;52.588;13.396;2023-05-16T01:46:54;100545.59;;;12.43;72.76
57192;BME280;43052;52.588;13.396;2023-05-16T01:49:25;100551.69;;;12.45;72.89
57192;BME280;43052;52.588;13.396;2023-05-16T01:51:55;100554.22;;;12.51;72.92
57192;BME280;43052;52.588;13.396;2023-05-16T01:54:24;100559.34;;;12.58;72.73
57192;BME280;43052;52.588;13.396;2023-05-16T01:56:54;100561.03;;;12.62;72.95
57192;BME280;43052;52.588;13.396;2023-05-16T01:59:21;100563.56;;;12.66;72.42
57192;BME280;43052;52.588;13.396;2023-05-16T02:01:47;100565.31;;;12.67;72.30
57192;BME280;43052;52.588;13.396;2023-05-16T02:04:12;100564.44;;;12.67;72.26
57192;BME280;43052;52.588;13.396;2023-05-16T02:06:39;100573.31;;;12.60;72.22
57192;BME280;43052;52.588;13.396;2023-05-16T02:09:05;100572.53;;;12.53;72.28
57192;BME280;43052;52.588;13.396;2023-05-16T02:11:30;100578.66;;;12.53;72.36
57192;BME280;43052;52.588;13.396;2023-05-16T02:13:55;100581.25;;;12.55;72.20
57192;BME280;43052;52.588;13.396;2023-05-16T02:16:20;100586.53;;;12.53;72.15
57192;BME280;43052;52.588;13.396;2023-05-16T02:18:46;100584.91;;;12.46;72.06
57192;BME280;43052;52.588;13.396;2023-05-16T02:21:11;100596.34;;;12.41;72.07
57192;BME280;43052;52.588;13.396;2023-05-16T02:23:36;100596.34;;;12.39;71.95
57192;BME280;43052;52.588;13.396;2023-05-16T02:26:01;100601.53;;;12.45;71.71
57192;BME280;43052;52.588;13.396;2023-05-16T02:28:27;100594.56;;;12.43;71.42
57192;BME280;43052;52.588;13.396;2023-05-16T02:30:59;100599.91;;;12.36;71.34
57192;BME280;43052;52.588;13.396;2023-05-16T02:33:25;100606.03;;;12.37;71.16
57192;BME280;43052;52.588;13.396;2023-05-16T02:35:51;100606.97;;;12.30;71.11
57192;BME280;43052;52.588;13.396;2023-05-16T02:38:16;100606.13;;;12.29;70.96
57192;BME280;43052;52.588;13.396;2023-05-16T02:40:42;100615.81;;;12.26;70.94
57192;BME280;43052;52.588;13.396;2023-05-16T02:43:07;100621.91;;;12.26;70.75
57192;BME280;43052;52.588;13.396;2023-05-16T02:45:32;100628.88;;;12.29;70.79
57192;BME280;43052;52.588;13.396;2023-05-16T02:47:58;100636.63;;;12.35;70.44
57192;BME280;43052;52.588;13.396;2023-05-16T02:50:23;100635.69;;;12.41;70.29
57192;BME280;43052;52.588;13.396;2023-05-16T02:52:48;100635.63;;;12.44;70.09
57192;BME280;43052;52.588;13.396;2023-05-16T02:55:13;100641.78;;;12.41;70.01
57192;BME280;43052;52.588;13.396;2023-05-16T02:57:39;100642.81;;;12.32;69.93
57192;BME280;43052;52.588;13.396;2023-05-16T03:00:04;100647.34;;;12.19;70.18
57192;BME280;43052;52.588;13.396;2023-05-16T03:02:30;100644.81;;;12.13;70.26
57192;BME280;43052;52.588;13.396;2023-05-16T03:04:55;100649.16;;;12.14;70.09
57192;BME280;43052;52.588;13.396;2023-05-16T03:07:20;100653.47;;;12.18;70.17
57192;BME280;43052;52.588;13.396;2023-05-16T03:09:46;100641.28;;;12.16;70.06
57192;BME280;43052;52.588;13.396;2023-05-16T03:12:11;100654.34;;;12.20;69.91
57192;BME280;43052;52.588;13.396;2023-05-16T03:14:36;100663.97;;;12.18;69.96
57192;BME280;43052;52.588;13.396;2023-05-16T03:17:01;100660.47;;;12.19;69.85
57192;BME280;43052;52.588;13.396;2023-05-16T03:19:27;100663.09;;;12.19;69.51
57192;BME280;43052;52.588;13.396;2023-05-16T03:21:52;100673.56;;;12.19;69.52
57192;BME280;43052;52.588;13.396;2023-05-16T03:24:17;100673.56;;;12.18;69.77
57192;BME280;43052;52.588;13.396;2023-05-16T03:26:42;100684.91;;;12.20;69.68
57192;BME280;43052;52.588;13.396;2023-05-16T03:29:08;100685.78;;;12.20;69.71
57192;BME280;43052;52.588;13.396;2023-05-16T03:31:33;100682.31;;;12.18;69.77
57192;BME280;43052;52.588;13.396;2023-05-16T03:33:58;100694.47;;;12.22;69.70
57192;BME280;43052;52.588;13.396;2023-05-16T03:36:23;100687.59;;;12.15;69.48
57192;BME280;43052;52.588;13.396;2023-05-16T03:38:49;100688.47;;;12.14;69.85
57192;BME280;43052;52.588;13.396;2023-05-16T03:41:14;100695.56;;;12.07;69.80
57192;BME280;43052;52.588;13.396;2023-05-16T03:43:39;100689.44;;;12.07;69.81
57192;BME280;43052;52.588;13.396;2023-05-16T03:46:05;100696.41;;;12.11;69.87
57192;BME280;43052;52.588;13.396;2023-05-16T03:48:30;100697.25;;;12.12;69.72
57192;BME280;43052;52.588;13.396;2023-05-16T03:50:55;100694.66;;;12.10;69.95
57192;BME280;43052;52.588;13.396;2023-05-16T03:53:21;100692.91;;;12.11;69.92
57192;BME280;43052;52.588;13.396;2023-05-16T03:55:46;100688.53;;;12.11;69.61
57192;BME280;43052;52.588;13.396;2023-05-16T03:58:11;100692.03;;;12.10;69.72
57192;BME280;43052;52.588;13.396;2023-05-16T04:00:37;100690.28;;;12.11;69.74
57192;BME280;43052;52.588;13.396;2023-05-16T04:03:02;100688.53;;;12.10;69.78
57192;BME280;43052;52.588;13.396;2023-05-16T04:05:28;100694.72;;;12.05;69.57
57192;BME280;43052;52.588;13.396;2023-05-16T04:07:53;100702.47;;;12.15;69.49
57192;BME280;43052;52.588;13.396;2023-05-16T04:10:19;100698.97;;;12.14;69.49
57192;BME280;43052;52.588;13.396;2023-05-16T04:12:44;100707.69;;;12.16;69.55
57192;BME280;43052;52.588;13.396;2023-05-16T04:15:09;100698.09;;;12.12;69.42
57192;BME280;43052;52.588;13.396;2023-05-16T04:17:35;100712.84;;;12.22;69.35
57192;BME280;43052;52.588;13.396;2023-05-16T04:20:00;100712.78;;;12.27;69.16
57192;BME280;43052;52.588;13.396;2023-05-16T04:22:26;100715.44;;;12.26;69.10
57192;BME280;43052;52.588;13.396;2023-05-16T04:24:51;100727.69;;;12.25;69.09
57192;BME280;43052;52.588;13.396;2023-05-16T04:27:16;100732.00;;;12.26;68.90
57192;BME280;43052;52.588;13.396;2023-05-16T04:29:42;100727.63;;;12.28;68.96
57192;BME280;43052;52.588;13.396;2023-05-16T04:32:07;100741.56;;;12.33;68.97
57192;BME280;43052;52.588;13.396;2023-05-16T04:34:33;100740.72;;;12.28;68.90
57192;BME280;43052;52.588;13.396;2023-05-16T04:37:01;100745.22;;;12.20;68.82
57192;BME280;43052;52.588;13.396;2023-05-16T04:39:26;100742.66;;;12.14;69.09
57192;BME280;43052;52.588;13.396;2023-05-16T04:41:52;100753.22;;;12.09;68.88
57192;BME280;43052;52.588;13.396;2023-05-16T04:44:17;100757.56;;;12.09;68.97
57192;BME280;43052;52.588;13.396;2023-05-16T04:46:42;100768.06;;;12.09;69.11
57192;BME280;43052;52.588;13.396;2023-05-16T04:49:07;100773.19;;;12.18;69.10
57192;BME280;43052;52.588;13.396;2023-05-16T04:51:33;100769.75;;;12.16;68.56
57192;BME280;43052;52.588;13.396;2023-05-16T04:53:59;100768.97;;;12.07;68.72
57192;BME280;43052;52.588;13.396;2023-05-16T04:56:24;100777.75;;;12.00;68.71
57192;BME280;43052;52.588;13.396;2023-05-16T04:58:51;100775.22;;;11.93;68.59
57192;BME280;43052;52.588;13.396;2023-05-16T05:01:16;100786.53;;;11.98;68.80
57192;BME280;43052;52.588;13.396;2023-05-16T05:03:41;100783.84;;;12.02;68.78
57192;BME280;43052;52.588;13.396;2023-05-16T05:06:06;100791.72;;;12.02;68.75
57192;BME280;43052;52.588;13.396;2023-05-16T05:08:32;100792.66;;;11.94;68.69
57192;BME280;43052;52.588;13.396;2023-05-16T05:10:57;100799.66;;;11.93;68.53
57192;BME280;43052;52.588;13.396;2023-05-16T05:13:22;100809.25;;;11.94;68.78
57192;BME280;43052;52.588;13.396;2023-05-16T05:15:48;100815.34;;;11.95;68.73
57192;BME280;43052;52.588;13.396;2023-05-16T05:18:14;100824.16;;;11.89;68.70
57192;BME280;43052;52.588;13.396;2023-05-16T05:20:40;100824.16;;;11.87;68.37
57192;BME280;43052;52.588;13.396;2023-05-16T05:23:05;100828.50;;;11.88;68.34
57192;BME280;43052;52.588;13.396;2023-05-16T05:25:31;100832.97;;;11.80;68.28
57192;BME280;43052;52.588;13.396;2023-05-16T05:27:57;100832.13;;;11.76;68.29
57192;BME280;43052;52.588;13.396;2023-05-16T05:30:23;100837.31;;;11.83;68.27
57192;BME280;43052;52.588;13.396;2023-05-16T05:32:48;100839.00;;;11.88;67.83
57192;BME280;43052;52.588;13.396;2023-05-16T05:35:13;100839.88;;;11.90;67.73
57192;BME280;43052;52.588;13.396;2023-05-16T05:37:39;100846.81;;;11.93;67.41
57192;BME280;43052;52.588;13.396;2023-05-16T05:40:05;100843.34;;;11.93;67.41
57192;BME280;43052;52.588;13.396;2023-05-16T05:42:31;100857.28;;;12.01;67.27
57192;BME280;43052;52.588;13.396;2023-05-16T05:44:56;100854.63;;;12.02;66.91
57192;BME280;43052;52.588;13.396;2023-05-16T05:47:21;100852.88;;;12.04;66.82
57192;BME280;43052;52.588;13.396;2023-05-16T05:49:47;100847.66;;;12.03;66.69
57192;BME280;43052;52.588;13.396;2023-05-16T05:52:12;100865.03;;;12.09;66.83
57192;BME280;43052;52.588;13.396;2023-05-16T05:54:37;100862.31;;;12.19;66.65
57192;BME280;43052;52.588;13.396;2023-05-16T05:57:03;100869.31;;;12.20;66.55
57192;BME280;43052;52.588;13.396;2023-05-16T05:59:28;100870.94;;;12.29;66.09
57192;BME280;43052;52.588;13.396;2023-05-16T06:01:53;100879.63;;;12.36;65.71
57192;BME280;43052;52.588;13.396;2023-05-16T06:04:19;100882.22;;;12.37;65.57
57192;BME280;43052;52.588;13.396;2023-05-16T06:06:44;100881.34;;;12.38;65.33
57192;BME280;43052;52.588;13.396;2023-05-16T06:09:10;100883.09;;;12.38;65.21
57192;BME280;43052;52.588;13.396;2023-05-16T06:11:36;100894.44;;;12.42;65.43
57192;BME280;43052;52.588;13.396;2023-05-16T06:14:01;100896.94;;;12.49;64.88
57192;BME280;43052;52.588;13.396;2023-05-16T06:16:27;100892.53;;;12.53;64.97
57192;BME280;43052;52.588;13.396;2023-05-16T06:18:55;100902.09;;;12.59;64.76
57192;BME280;43052;52.588;13.396;2023-05-16T06:21:20;100894.97;;;12.70;64.42
57192;BME280;43052;52.588;13.396;2023-05-16T06:23:47;100890.69;;;12.61;64.05
57192;BME280;43052;52.588;13.396;2023-05-16T06:26:14;100886.34;;;12.59;64.32
57192;BME280;43052;52.588;13.396;2023-05-16T06:28:39;100888.91;;;12.66;64.16
57192;BME280;43052;52.588;13.396;2023-05-16T06:31:05;100886.19;;;12.73;63.88
57192;BME280;43052;52.588;13.396;2023-05-16T06:33:30;100888.72;;;12.80;63.78
57192;BME280;43052;52.588;13.396;2023-05-16T06:35:55;100872.97;;;12.80;63.44
57192;BME280;43052;52.588;13.396;2023-05-16T06:38:20;100886.88;;;12.87;63.35
57192;BME280;43052;52.588;13.396;2023-05-16T06:40:46;100885.97;;;12.90;63.02
57192;BME280;43052;52.588;13.396;2023-05-16T06:43:11;100889.41;;;12.95;63.06
57192;BME280;43052;52.588;13.396;2023-05-16T06:45:36;100885.66;;;13.11;62.78
57192;BME280;43052;52.588;13.396;2023-05-16T06:48:02;100895.97;;;13.25;62.36
57192;BME280;43052;52.588;13.396;2023-05-16T06:50:28;100896.63;;;13.43;61.99
57192;BME280;43052;52.588;13.396;2023-05-16T06:52:53;100917.53;;;13.51;61.76
57192;BME280;43052;52.588;13.396;2023-05-16T06:55:19;100915.75;;;13.51;61.49
57192;BME280;43052;52.588;13.396;2023-05-16T06:57:44;100926.06;;;13.65;61.27
57192;BME280;43052;52.588;13.396;2023-05-16T07:00:10;100926.03;;;13.67;60.93
57192;BME280;43052;52.588;13.396;2023-05-16T07:02:37;100919.06;;;13.66;61.04
57192;BME280;43052;52.588;13.396;2023-05-16T07:05:02;100920.03;;;13.60;60.68
57192;BME280;43052;52.588;13.396;2023-05-16T07:07:28;100924.41;;;13.59;60.66
57192;BME280;43052;52.588;13.396;2023-05-16T07:09:53;100927.03;;;13.61;60.85
57192;BME280;43052;52.588;13.396;2023-05-16T07:12:18;100935.66;;;13.69;60.63
57192;BME280;43052;52.588;13.396;2023-05-16T07:14:44;100935.38;;;13.86;60.18
57192;BME280;43052;52.588;13.396;2023-05-16T07:17:13;100940.53;;;13.92;60.33
57192;BME280;43052;52.588;13.396;2023-05-16T07:19:43;100936.88;;;14.01;60.06
57192;BME280;43052;52.588;13.396;2023-05-16T07:22:08;100935.97;;;14.02;59.46
57192;BME280;43052;52.588;13.396;2023-05-16T07:24:35;100944.16;;;13.84;59.50
57192;BME280;43052;52.588;13.396;2023-05-16T07:27:01;100947.72;;;13.79;59.62
57192;BME280;43052;52.588;13.396;2023-05-16T07:29:26;100950.22;;;13.89;59.62
57192;BME280;43052;52.588;13.396;2023-05-16T07:31:52;100951.56;;;14.15;59.19
57192;BME280;43052;52.588;13.396;2023-05-16T07:34:18;100952.44;;;14.62;58.03
57192;BME280;43052;52.588;13.396;2023-05-16T07:36:43;100953.53;;;14.97;57.28
57192;BME280;43052;52.588;13.396;2023-05-16T07:39:08;100953.97;;;15.18;56.22
57192;BME280;43052;52.588;13.396;2023-05-16T07:41:34;100948.38;;;15.33;55.84
57192;BME280;43052;52.588;13.396;2023-05-16T07:43:59;100951.47;;;15.51;55.15
57192;BME280;43052;52.588;13.396;2023-05-16T07:46:24;100945.38;;;15.50;55.01
57192;BME280;43052;52.588;13.396;2023-05-16T07:48:51;100951.00;;;15.33;54.74
57192;BME280;43052;52.588;13.396;2023-05-16T07:51:16;100947.03;;;15.15;54.46
57192;BME280;43052;52.588;13.396;2023-05-16T07:53:41;100953.53;;;14.97;55.11
57192;BME280;43052;52.588;13.396;2023-05-16T07:56:07;100964.09;;;14.94;54.84
57192;BME280;43052;52.588;13.396;2023-05-16T07:58:32;100965.13;;;14.87;55.01
57192;BME280;43052;52.588;13.396;2023-05-16T08:00:58;100966.41;;;14.67;54.95
57192;BME280;43052;52.588;13.396;2023-05-16T08:03:23;100960.38;;;14.59;55.43
57192;BME280;43052;52.588;13.396;2023-05-16T08:05:48;100973.56;;;14.57;55.09
57192;BME280;43052;52.588;13.396;2023-05-16T08:08:14;100973.81;;;14.45;55.38
57192;BME280;43052;52.588;13.396;2023-05-16T08:10:39;100969.38;;;14.47;55.61
57192;BME280;43052;52.588;13.396;2023-05-16T08:13:04;100974.38;;;14.61;55.16
57192;BME280;43052;52.588;13.396;2023-05-16T08:15:29;100990.03;;;14.70;55.28
57192;BME280;43052;52.588;13.396;2023-05-16T08:17:57;100991.78;;;14.71;55.22
57192;BME280;43052;52.588;13.396;2023-05-16T08:20:22;100998.88;;;14.65;54.81
57192;BME280;43052;52.588;13.396;2023-05-16T08:22:47;100996.50;;;14.51;55.21
57192;BME280;43052;52.588;13.396;2023-05-16T08:25:13;100993.28;;;14.33;55.48
57192;BME280;43052;52.588;13.396;2023-05-16T08:27:39;100999.63;;;14.23;55.77
57192;BME280;43052;52.588;13.396;2023-05-16T08:30:05;101002.00;;;14.37;55.83
57192;BME280;43052;52.588;13.396;2023-05-16T08:32:31;101001.88;;;14.45;55.68
57192;BME280;43052;52.588;13.396;2023-05-16T08:34:56;101000.88;;;14.52;55.33
57192;BME280;43052;52.588;13.396;2023-05-16T08:37:21;101007.59;;;14.70;54.78
57192;BME280;43052;52.588;13.396;2023-05-16T08:39:46;101010.16;;;14.75;54.12
57192;BME280;43052;52.588;13.396;2023-05-16T08:42:11;101010.22;;;14.70;54.37
57192;BME280;43052;52.588;13.396;2023-05-16T08:44:37;101010.28;;;14.64;54.24
57192;BME280;43052;52.588;13.396;2023-05-16T08:47:10;101007.75;;;14.59;54.45
57192;BME280;43052;52.588;13.396;2023-05-16T08:49:38;101013.72;;;14.70;54.55
57192;BME280;43052;52.588;13.396;2023-05-16T08:52:07;101019.88;;;14.69;54.43
57192;BME280;43052;52.588;13.396;2023-05-16T08:54:32;101009.34;;;14.69;54.40
57192;BME280;43052;52.588;13.396;2023-05-16T08:57:00;101007.66;;;14.64;54.08
57192;BME280;43052;52.588;13.396;2023-05-16T08:59:26;101011.38;;;14.52;54.57
57192;BME280;43052;52.588;13.396;2023-05-16T09:01:51;101014.09;;;14.49;54.34
57192;BME280;43052;52.588;13.396;2023-05-16T09:04:17;101005.28;;;14.51;54.42
57192;BME280;43052;52.588;13.396;2023-05-16T09:06:42;101004.44;;;14.49;54.14
57192;BME280;43052;52.588;13.396;2023-05-16T09:09:07;101003.25;;;14.66;54.03
57192;BME280;43052;52.588;13.396;2023-05-16T09:11:37;101005.59;;;14.81;53.41
57192;BME280;43052;52.588;13.396;2023-05-16T09:14:02;101006.44;;;14.85;53.46
57192;BME280;43052;52.588;13.396;2023-05-16T09:16:28;101007.38;;;14.81;53.24
57192;BME280;43052;52.588;13.396;2023-05-16T09:18:55;101010.88;;;14.81;53.69
57192;BME280;43052;52.588;13.396;2023-05-16T09:21:22;101006.38;;;14.88;53.41
57192;BME280;43052;52.588;13.396;2023-05-16T09:23:48;101010.44;;;15.04;52.85
57192;BME280;43052;52.588;13.396;2023-05-16T09:26:14;101026.00;;;15.17;52.64
57192;BME280;43052;52.588;13.396;2023-05-16T09:28:39;101030.22;;;15.24;52.42
57192;BME280;43052;52.588;13.396;2023-05-16T09:31:20;101024.88;;;15.29;52.00
57192;BME280;43052;52.588;13.396;2023-05-16T09:33:47;101024.91;;;15.26;51.90
57192;BME280;43052;52.588;13.396;2023-05-16T09:36:14;101019.09;;;15.11;51.86
57192;BME280;43052;52.588;13.396;2023-05-16T09:38:39;101018.06;;;15.18;52.04
57192;BME280;43052;52.588;13.396;2023-05-16T09:41:05;101023.53;;;15.50;51.51
57192;BME280;43052;52.588;13.396;2023-05-16T09:43:30;101027.47;;;15.71;50.41
57192;BME280;43052;52.588;13.396;2023-05-16T09:45:58;101025.91;;;15.62;50.44
57192;BME280;43052;52.588;13.396;2023-05-16T09:48:24;101030.50;;;15.54;50.88
57192;BME280;43052;52.588;13.396;2023-05-16T09:50:52;101032.53;;;15.41;50.94
57192;BME280;43052;52.588;13.396;2023-05-16T09:53:29;101045.00;;;15.31;51.04
57192;BME280;43052;52.588;13.396;2023-05-16T09:56:14;101052.25;;;15.22;50.90
57192;BME280;43052;52.588;13.396;2023-05-16T09:58:41;101053.09;;;15.24;50.94
57192;BME280;43052;52.588;13.396;2023-05-16T10:01:07;101059.88;;;15.34;50.98
57192;BME280;43052;52.588;13.396;2023-05-16T10:03:34;101054.50;;;15.40;50.73
57192;BME280;43052;52.588;13.396;2023-05-16T10:06:00;101059.88;;;15.34;50.75
57192;BME280;43052;52.588;13.396;2023-05-16T10:08:26;101060.56;;;15.44;50.64
57192;BME280;43052;52.588;13.396;2023-05-16T10:10:53;101061.31;;;15.49;50.80
57192;BME280;43052;52.588;13.396;2023-05-16T10:13:23;101063.91;;;15.52;51.02
57192;BME280;43052;52.588;13.396;2023-05-16T10:15:54;101054.59;;;15.34;51.08
57192;BME280;43052;52.588;13.396;2023-05-16T10:18:21;101063.53;;;15.27;51.26
57192;BME280;43052;52.588;13.396;2023-05-16T10:20:48;101061.78;;;15.27;51.45
57192;BME280;43052;52.588;13.396;2023-05-16T10:23:18;101061.38;;;15.47;51.52
57192;BME280;43052;52.588;13.396;2023-05-16T10:25:45;101061.97;;;15.60;51.18
57192;BME280;43052;52.588;13.396;2023-05-16T10:28:12;101047.66;;;15.72;50.64
57192;BME280;43052;52.588;13.396;2023-05-16T10:30:40;101055.94;;;15.96;50.45
57192;BME280;43052;52.588;13.396;2023-05-16T10:33:08;101059.44;;;15.96;50.23
57192;BME280;43052;52.588;13.396;2023-05-16T10:35:34;101067.75;;;15.78;50.26
57192;BME280;43052;52.588;13.396;2023-05-16T10:38:01;101062.06;;;15.56;50.66
57192;BME280;43052;52.588;13.396;2023-05-16T10:40:27;101066.97;;;15.32;51.31
57192;BME280;43052;52.588;13.396;2023-05-16T10:42:57;101072.56;;;15.15;51.75
57192;BME280;43052;52.588;13.396;2023-05-16T10:45:23;101062.16;;;15.09;52.19
57192;BME280;43052;52.588;13.396;2023-05-16T10:47:55;101072.94;;;14.95;52.44
57192;BME280;43052;52.588;13.396;2023-05-16T10:50:35;101089.84;;;14.83;52.89
57192;BME280;43052;52.588;13.396;2023-05-16T11:01:25;101091.03;;;14.66;52.83
57192;BME280;43052;52.588;13.396;2023-05-16T11:06:30;101076.44;;;15.41;51.94
57192;BME280;43052;52.588;13.396;2023-05-16T11:11:59;101078.41;;;16.49;49.49
57192;BME280;43052;52.588;13.396;2023-05-16T11:14:37;101076.47;;;16.90;48.61
57192;BME280;43052;52.588;13.396;2023-05-16T11:17:19;101074.16;;;17.12;47.83
57192;BME280;43052;52.588;13.396;2023-05-16T11:19:54;101089.75;;;17.21;47.28
57192;BME280;43052;52.588;13.396;2023-05-16T11:22:22;101087.78;;;17.28;46.91
57192;BME280;43052;52.588;13.396;2023-05-16T11:25:05;101085.03;;;17.63;46.53
57192;BME280;43052;52.588;13.396;2023-05-16T11:27:32;101083.13;;;17.98;45.25
57192;BME280;43052;52.588;13.396;2023-05-16T11:30:18;101101.69;;;17.96;44.60
57192;BME280;43052;52.588;13.396;2023-05-16T11:32:45;101098.34;;;17.60;44.69
57192;BME280;43052;52.588;13.396;2023-05-16T11:35:12;101099.88;;;17.05;45.48
57192;BME280;43052;52.588;13.396;2023-05-16T11:37:38;101101.88;;;16.61;46.73
57192;BME280;43052;52.588;13.396;2023-05-16T11:40:05;101107.94;;;16.28;47.26
57192;BME280;43052;52.588;13.396;2023-05-16T11:42:35;101101.41;;;16.07;47.60
57192;BME280;43052;52.588;13.396;2023-05-16T11:45:14;101096.53;;;15.89;47.86
57192;BME280;43052;52.588;13.396;2023-05-16T11:47:41;101103.06;;;15.69;48.42
57192;BME280;43052;52.588;13.396;2023-05-16T11:50:11;101103.53;;;15.47;48.15
57192;BME280;43052;52.588;13.396;2023-05-16T11:52:37;101108.94;;;15.41;48.57
57192;BME280;43052;52.588;13.396;2023-05-16T11:55:04;101109.00;;;15.38;48.32
57192;BME280;43052;52.588;13.396;2023-05-16T11:57:30;101096.63;;;15.42;48.19
57192;BME280;43052;52.588;13.396;2023-05-16T12:00:03;101104.72;;;15.75;47.84
57192;BME280;43052;52.588;13.396;2023-05-16T12:02:31;101098.72;;;16.09;47.28
57192;BME280;43052;52.588;13.396;2023-05-16T12:04:57;101102.66;;;16.30;46.67
57192;BME280;43052;52.588;13.396;2023-05-16T12:07:27;101100.41;;;16.49;46.23
57192;BME280;43052;52.588;13.396;2023-05-16T12:09:52;101093.00;;;16.64;45.82
57192;BME280;43052;52.588;13.396;2023-05-16T12:12:19;101083.09;;;16.72;45.78
57192;BME280;43052;52.588;13.396;2023-05-16T12:14:45;101089.06;;;16.80;45.17
57192;BME280;43052;52.588;13.396;2023-05-16T12:17:10;101092.06;;;17.01;44.89
57192;BME280;43052;52.588;13.396;2023-05-16T12:19:36;101084.34;;;17.56;43.88
57192;BME280;43052;52.588;13.396;2023-05-16T12:22:01;101083.50;;;18.14;43.08
57192;BME280;43052;52.588;13.396;2023-05-16T12:24:30;101076.94;;;18.53;41.11
57192;BME280;43052;52.588;13.396;2023-05-16T12:26:55;101083.97;;;18.54;40.68
57192;BME280;43052;52.588;13.396;2023-05-16T12:29:21;101099.09;;;18.50;40.75
57192;BME280;43052;52.588;13.396;2023-05-16T12:31:51;101091.00;;;18.28;40.85
57192;BME280;43052;52.588;13.396;2023-05-16T12:34:18;101101.34;;;18.07;40.95
57192;BME280;43052;52.588;13.396;2023-05-16T12:36:50;101099.91;;;17.97;41.10
57192;BME280;43052;52.588;13.396;2023-05-16T12:39:15;101103.06;;;17.78;40.99
57192;BME280;43052;52.588;13.396;2023-05-16T12:41:42;101102.69;;;17.62;41.42
57192;BME280;43052;52.588;13.396;2023-05-16T12:44:15;101111.28;;;17.69;41.39
57192;BME280;43052;52.588;13.396;2023-05-16T12:46:50;101104.25;;;17.69;41.29
57192;BME280;43052;52.588;13.396;2023-05-16T12:49:19;101123.03;;;17.59;40.69
57192;BME280;43052;52.588;13.396;2023-05-16T12:51:54;101124.25;;;17.48;40.93
57192;BME280;43052;52.588;13.396;2023-05-16T12:54:21;101130.19;;;17.55;40.90